Time;durP1;ratioP1;P1;durP2;ratioP2;P2;SDS_P1;SDS_P2;PMS_P1;PMS_P2;Temp;Humidity;BMP_temperature;BMP_pressure;BME280_temperature;BME280_humidity;BME280_pressure;Samples;Min_cycle;Max_cycle;Signal;HPM_P1;HPM_P2
2022/04/23 00:00:21;;;;;;;24.17;19.08;;;;;;;10.27;90.47;67919.59;5066142;28;20048;-83
2022/04/23 00:02:47;;;;;;;24.67;18.95;;;;;;;10.26;90.93;67916.34;5079304;28;20459;-84
2022/04/23 00:05:12;;;;;;;25.45;20.52;;;;;;;10.22;91.09;67911.81;5070234;28;20041;-84
2022/04/23 00:07:38;;;;;;;24.25;18.95;;;;;;;10.17;91.42;67903.50;5071292;28;20047;-85
2022/04/23 00:10:04;;;;;;;23.88;19.67;;;;;;;10.17;91.01;67904.06;5071714;28;20036;-84
2022/04/23 00:12:30;;;;;;;25.45;20.25;;;;;;;10.19;91.37;67907.88;5071054;28;20040;-83
2022/04/23 00:14:55;;;;;;;25.65;19.58;;;;;;;10.20;91.07;67909.56;5071115;28;20051;-84
2022/04/23 00:17:20;;;;;;;25.40;20.70;;;;;;;10.22;90.85;67909.16;5071263;28;20037;-85
2022/04/23 00:19:47;;;;;;;29.70;20.73;;;;;;;;;;5070866;28;20090;-85
2022/04/23 00:22:13;;;;;;;27.83;21.25;;;;;;;10.05;92.38;67893.09;5071402;28;20186;-85
2022/04/23 00:24:38;;;;;;;28.88;22.08;;;;;;;10.13;91.85;67898.97;5070990;28;20048;-85
2022/04/23 00:27:04;;;;;;;27.83;20.77;;;;;;;10.03;92.63;67890.84;5064995;28;20033;-84
2022/04/23 00:29:30;;;;;;;29.48;21.35;;;;;;;10.05;92.42;67892.53;5073186;28;20043;-84
2022/04/23 00:31:55;;;;;;;29.30;22.33;;;;;;;10.05;92.20;67889.88;5071381;28;20063;-85
2022/04/23 00:34:20;;;;;;;30.58;22.00;;;;;;;10.01;93.24;67885.91;5074576;28;20531;-84
2022/04/23 00:36:46;;;;;;;29.15;22.08;;;;;;;10.03;92.95;67888.16;5074621;28;20028;-84
2022/04/23 00:39:11;;;;;;;29.80;21.48;;;;;;;10.01;93.49;67885.91;5078522;28;20044;-84
2022/04/23 00:41:46;;;;;;;31.52;22.33;;;;;;;10.02;93.03;67887.03;5076008;28;20098;-84
2022/04/23 00:44:12;;;;;;;30.25;21.88;;;;;;;10.04;92.90;67884.00;5065681;28;20045;-84
2022/04/23 00:46:38;;;;;;;31.70;24.65;;;;;;;10.06;92.88;67891.56;5066658;28;20040;-84
2022/04/23 00:49:05;;;;;;;30.58;23.60;;;;;;;10.07;93.26;67892.13;5066460;28;20045;-84
2022/04/23 00:51:32;;;;;;;30.60;22.27;;;;;;;10.13;92.48;67904.84;5063197;28;20068;-83
2022/04/23 00:53:59;;;;;;;30.42;22.88;;;;;;;10.14;93.09;67902.75;5066739;28;20048;-83
2022/04/23 00:56:25;;;;;;;30.95;23.40;;;;;;;10.15;93.12;67904.44;5066265;28;20082;-83
2022/04/23 00:58:51;;;;;;;33.15;24.17;;;;;;;;;;5068683;28;20121;-83
2022/04/23 01:01:18;;;;;;;34.95;24.33;;;;;;;10.23;93.08;67910.28;5062315;28;20040;-84
2022/04/23 01:03:44;;;;;;;28.98;21.70;;;;;;;10.29;92.54;67921.88;5064589;28;20044;-84
2022/04/23 01:06:10;;;;;;;30.02;24.45;;;;;;;10.39;91.61;67933.22;5066947;28;20043;-84
2022/04/23 01:08:37;;;;;;;28.13;22.15;;;;;;;10.41;91.60;67930.16;5068013;28;20071;-85
2022/04/23 01:11:03;;;;;;;32.08;22.77;;;;;;;10.39;92.13;67928.47;5070640;28;20072;-84
2022/04/23 01:13:28;;;;;;;31.48;23.38;;;;;;;10.40;91.86;67934.38;5058222;28;20052;-83
2022/04/23 01:16:02;;;;;;;32.85;23.98;;;;;;;10.47;91.25;67939.66;5065792;28;20419;-83
2022/04/23 01:18:28;;;;;;;30.88;23.52;;;;;;;10.43;91.83;67932.44;5069864;28;20044;-83
2022/04/23 01:20:55;;;;;;;31.25;24.10;;;;;;;10.45;91.19;67937.38;5076947;28;20044;-83
2022/04/23 01:23:21;;;;;;;30.02;26.25;;;;;;;10.55;90.49;67945.50;5072720;28;20040;-83
2022/04/23 01:25:46;;;;;;;29.38;23.35;;;;;;;;;;5077372;28;20063;-84
2022/04/23 01:28:14;;;;;;;29.92;22.67;;;;;;;10.56;90.75;67949.31;5074700;28;20055;-84
2022/04/23 01:30:39;;;;;;;28.98;24.50;;;;;;;10.62;90.36;67956.09;5075293;28;20382;-84
2022/04/23 01:33:04;;;;;;;30.48;23.13;;;;;;;10.67;90.22;67953.22;5070512;28;20403;-83
2022/04/23 01:35:31;;;;;;;33.65;23.10;;;;;;;10.68;89.93;67959.69;5060776;28;20459;-82
2022/04/23 01:37:56;;;;;;;29.60;22.60;;;;;;;10.69;89.93;67960.81;5060135;28;20098;-84
2022/04/23 01:40:22;;;;;;;31.33;23.63;;;;;;;10.67;90.38;67958.53;5057108;28;20040;-83
2022/04/23 01:42:47;;;;;;;27.55;23.13;;;;;;;10.69;89.88;67960.81;5065705;28;20051;-83
2022/04/23 01:45:12;;;;;;;29.88;24.52;;;;;;;10.70;89.52;67967.25;5058846;28;20042;-83
2022/04/23 01:47:38;;;;;;;30.05;24.58;;;;;;;;;;5063123;28;20043;-83
2022/04/23 01:50:04;;;;;;;29.65;25.30;;;;;;;10.64;90.04;67955.13;5067768;28;20043;-83
2022/04/23 01:52:29;;;;;;;31.17;24.50;;;;;;;10.57;90.19;67951.00;5058003;28;20052;-82
2022/04/23 01:54:54;;;;;;;28.77;22.77;;;;;;;10.54;90.27;67947.03;5060502;28;20668;-84
2022/04/23 01:57:20;;;;;;;33.38;23.70;;;;;;;10.47;90.74;67936.41;5056085;28;21012;-84
2022/04/23 01:59:45;;;;;;;31.83;23.77;;;;;;;10.40;91.43;67929.03;5057263;28;20068;-85
2022/04/23 02:02:11;;;;;;;29.88;23.35;;;;;;;10.42;91.03;67931.31;5065315;28;20044;-84
2022/04/23 02:04:36;;;;;;;31.23;24.20;;;;;;;10.45;90.85;67939.47;5067440;28;20526;-84
2022/04/23 02:07:01;;;;;;;29.50;22.98;;;;;;;10.38;91.03;67927.31;5071552;28;20814;-83
2022/04/23 02:09:27;;;;;;;34.40;24.90;;;;;;;;;;5067016;28;20037;-84
2022/04/23 02:11:52;;;;;;;29.92;24.45;;;;;;;10.34;91.07;67922.22;5064080;28;20067;-84
2022/04/23 02:14:18;;;;;;;28.65;23.42;;;;;;;10.21;92.12;67913.34;5066484;28;20514;-84
2022/04/23 02:16:43;;;;;;;29.83;25.38;;;;;;;10.21;92.20;67907.47;5066307;28;20112;-84
2022/04/23 02:19:08;;;;;;;29.05;22.75;;;;;;;;;;5068411;28;20040;-84
2022/04/23 02:21:34;;;;;;;30.40;22.95;;;;;;;10.12;92.72;67897.81;5063980;28;20055;-83
2022/04/23 02:24:01;;;;;;;29.65;23.80;;;;;;;10.09;93.09;67894.41;5067002;28;20036;-84
2022/04/23 02:26:27;;;;;;;29.83;24.08;;;;;;;10.11;92.68;67897.25;5058696;28;20049;-85
2022/04/23 02:28:52;;;;;;;31.92;25.00;;;;;;;10.11;92.78;67897.25;5059197;28;20044;-84
2022/04/23 02:31:18;;;;;;;27.73;22.10;;;;;;;10.06;93.23;67891.00;5063455;28;20046;-84
2022/04/23 02:33:44;;;;;;;29.23;22.02;;;;;;;10.02;93.41;67889.72;5063960;28;20137;-83
2022/04/23 02:36:11;;;;;;;29.92;25.55;;;;;;;10.03;93.05;67887.59;5063237;28;20064;-83
2022/04/23 02:38:40;;;;;;;28.13;23.45;;;;;;;9.94;93.78;67883.28;5061172;28;20044;-83
2022/04/23 02:41:06;;;;;;;31.03;24.30;;;;;;;9.94;93.82;67880.63;5071838;28;20032;-84
2022/04/23 02:43:31;;;;;;;28.23;24.52;;;;;;;9.91;93.81;67875.13;5064869;28;20371;-84
2022/04/23 02:45:58;;;;;;;32.17;24.73;;;;;;;;;;5064129;28;20805;-84
2022/04/23 02:48:23;;;;;;;30.73;22.88;;;;;;;9.88;94.29;67871.16;5067256;28;20100;-83
2022/04/23 02:50:48;;;;;;;30.30;24.17;;;;;;;9.90;93.83;67873.44;5065305;28;20523;-83
2022/04/23 02:53:15;;;;;;;27.23;23.30;;;;;;;9.89;94.28;67872.28;5059538;28;20407;-83
2022/04/23 02:55:41;;;;;;;27.60;22.23;;;;;;;9.82;94.73;67869.69;5055823;28;20051;-83
2022/04/23 02:58:09;;;;;;;29.60;23.90;;;;;;;9.79;94.56;67861.53;5064723;28;20115;-84
2022/04/23 03:00:35;;;;;;;28.70;23.25;;;;;;;9.81;94.78;67863.22;5060082;28;20137;-85
2022/04/23 03:03:01;;;;;;;29.75;23.48;;;;;;;9.83;93.97;67866.06;5059916;28;20056;-86
2022/04/23 03:05:26;;;;;;;30.63;22.35;;;;;;;9.72;95.10;67853.56;5061227;28;20028;-83
2022/04/23 03:07:53;;;;;;;30.55;22.35;;;;;;;9.68;95.27;67849.63;5066661;28;20049;-83
2022/04/23 03:10:20;;;;;;;29.48;22.60;;;;;;;9.67;95.28;67851.16;5062673;28;20127;-83
2022/04/23 03:12:46;;;;;;;29.27;24.40;;;;;;;9.64;95.14;67850.41;5064222;28;20051;-84
2022/04/23 03:15:16;;;;;;;26.85;23.10;;;;;;;9.62;95.41;67848.13;5063043;28;20036;-84
2022/04/23 03:17:42;;;;;;;28.35;23.33;;;;;;;9.53;96.43;67832.63;5060507;28;20041;-83
2022/04/23 03:20:09;;;;;;;28.85;22.17;;;;;;;9.50;96.90;67829.22;5062084;28;20040;-83
2022/04/23 03:22:35;;;;;;;29.90;25.00;;;;;;;;;;5065963;28;20044;-84
2022/04/23 03:25:00;;;;;;;31.48;23.10;;;;;;;9.52;96.56;67831.47;5070523;28;20105;-84
2022/04/23 03:27:26;;;;;;;30.40;22.20;;;;;;;9.47;96.91;67825.81;5060639;28;20048;-83
2022/04/23 03:29:51;;;;;;;32.40;24.13;;;;;;;9.46;96.99;67827.31;5061967;28;20139;-84
2022/04/23 03:32:17;;;;;;;29.23;25.23;;;;;;;9.46;96.57;67825.22;5066621;28;20064;-83
2022/04/23 03:34:43;;;;;;;31.13;23.70;;;;;;;;;;5064686;28;20123;-84
2022/04/23 03:37:09;;;;;;;31.75;23.85;;;;;;;9.41;97.53;67819.00;5058638;28;20037;-84
2022/04/23 03:39:35;;;;;;;30.60;22.60;;;;;;;9.40;97.84;67823.19;5065684;28;20041;-83
2022/04/23 03:42:02;;;;;;;28.45;24.63;;;;;;;9.43;97.11;67823.91;5065766;28;20127;-85
2022/04/23 03:44:28;;;;;;;31.70;23.38;;;;;;;9.38;97.42;67815.59;5056783;28;20123;-84
2022/04/23 03:46:54;;;;;;;31.33;25.55;;;;;;;9.39;97.06;67816.75;5064701;28;20044;-83
2022/04/23 03:49:22;;;;;;;30.55;26.33;;;;;;;9.34;97.13;67816.38;5063649;28;20451;-84
2022/04/23 03:51:47;;;;;;;33.38;28.30;;;;;;;9.34;97.25;67814.28;5067360;28;20036;-83
2022/04/23 03:54:14;;;;;;;29.90;26.60;;;;;;;9.34;97.02;67813.72;5066795;28;20041;-82
2022/04/23 03:56:40;;;;;;;30.95;24.45;;;;;;;9.19;98.13;67800.50;5065781;28;20049;-84
2022/04/23 03:59:07;;;;;;;29.15;25.40;;;;;;;9.19;98.29;67794.63;5061182;28;20647;-84
2022/04/23 04:01:33;;;;;;;32.47;25.35;;;;;;;9.12;98.96;67786.69;5056288;28;20044;-83
2022/04/23 04:03:59;;;;;;;32.40;27.00;;;;;;;9.17;98.37;67792.91;5065835;28;20162;-83
2022/04/23 04:06:25;;;;;;;30.20;26.90;;;;;;;9.11;98.27;67788.78;5064004;28;20490;-83
2022/04/23 04:08:50;;;;;;;33.15;29.02;;;;;;;9.10;98.70;67785.00;5069998;28;20055;-83
2022/04/23 04:11:16;;;;;;;32.05;27.10;;;;;;;9.01;99.15;67778.03;5079521;28;20048;-83
2022/04/23 04:13:42;;;;;;;34.55;29.15;;;;;;;8.95;99.75;67768.56;5076366;28;20036;-83
2022/04/23 04:16:08;;;;;;;32.95;27.30;;;;;;;8.93;99.63;67771.03;5064548;28;20127;-83
2022/04/23 04:18:33;;;;;;;32.55;25.67;;;;;;;8.86;100.00;67757.78;5071189;28;20051;-83
2022/04/23 04:20:58;;;;;;;33.17;29.27;;;;;;;8.93;99.62;67766.28;5057486;28;20041;-83
2022/04/23 04:23:26;;;;;;;32.58;23.75;;;;;;;8.73;100.00;67743.63;5059514;28;20043;-83
2022/04/23 04:25:51;;;;;;;32.90;26.13;;;;;;;8.70;100.00;67743.44;5059345;28;20059;-83
2022/04/23 04:28:17;;;;;;;34.00;27.10;;;;;;;8.70;100.00;67746.09;5058958;28;20044;-83
2022/04/23 04:33:27;;;;;;;31.95;27.45;;;;;;;8.71;100.00;67741.94;5068631;28;20115;-83
2022/04/23 04:35:52;;;;;;;34.70;27.55;;;;;;;8.75;100.00;67751.78;5062817;28;20048;-83
2022/04/23 04:38:17;;;;;;;31.70;26.23;;;;;;;;;;5048662;28;20053;-83
2022/04/23 04:40:43;;;;;;;32.00;26.10;;;;;;;8.77;100.00;67750.81;5065609;28;20117;-83
2022/04/23 04:43:08;;;;;;;30.67;23.90;;;;;;;;;;5065521;28;20436;-84
2022/04/23 04:45:33;;;;;;;32.88;26.20;;;;;;;8.77;100.00;67751.38;5055693;28;20653;-84
2022/04/23 04:47:59;;;;;;;32.80;26.35;;;;;;;8.79;100.00;67753.66;5058095;28;20420;-83
2022/04/23 04:50:24;;;;;;;31.05;26.27;;;;;;;8.77;100.00;67754.03;5063151;28;20098;-83
2022/04/23 04:52:50;;;;;;;30.45;23.77;;;;;;;8.84;100.00;67760.84;5061183;28;20479;-83
2022/04/23 04:55:15;;;;;;;30.52;25.45;;;;;;;8.92;100.00;67764.59;5055225;28;20064;-83
2022/04/23 04:57:42;;;;;;;32.33;25.58;;;;;;;8.99;100.00;67780.50;5059976;28;20054;-83
2022/04/23 05:00:08;;;;;;;31.70;26.60;;;;;;;9.02;100.00;67776.50;5064281;28;20041;-83
2022/04/23 05:02:34;;;;;;;35.35;23.80;;;;;;;8.98;100.00;67774.06;5068218;28;20071;-84
2022/04/23 05:04:59;;;;;;;31.20;24.05;;;;;;;;;;5069811;28;20526;-83
2022/04/23 05:07:24;;;;;;;30.97;23.67;;;;;;;9.05;100.00;67779.31;5064272;28;20156;-83
2022/04/23 05:09:50;;;;;;;29.77;25.15;;;;;;;9.14;99.81;67794.84;5067804;28;20522;-83
2022/04/23 05:12:15;;;;;;;30.67;25.40;;;;;;;9.16;99.91;67794.44;5062810;28;20562;-84
2022/04/23 05:14:40;;;;;;;30.02;23.33;;;;;;;9.14;100.00;67794.84;5066869;28;20579;-82
2022/04/23 05:17:06;;;;;;;30.13;23.15;;;;;;;9.13;100.00;67791.06;5066323;28;20032;-83
2022/04/23 05:19:31;;;;;;;29.77;23.85;;;;;;;9.20;100.00;67798.41;5059835;28;20075;-83
2022/04/23 05:21:56;;;;;;;29.13;25.45;;;;;;;9.24;100.00;67803.53;5054349;28;20040;-83
2022/04/23 05:24:24;;;;;;;31.05;24.90;;;;;;;9.22;100.00;67803.34;5067616;28;20093;-83
2022/04/23 05:26:49;;;;;;;29.63;22.80;;;;;;;9.31;99.87;67808.22;5069528;28;20033;-83
2022/04/23 05:29:15;;;;;;;28.60;21.50;;;;;;;9.28;100.00;67810.13;5063882;28;20119;-83
2022/04/23 05:31:40;;;;;;;29.60;24.65;;;;;;;;;;5066688;28;20483;-83
2022/04/23 05:34:06;;;;;;;25.92;21.48;;;;;;;9.40;99.64;67818.44;5068273;28;20037;-83
2022/04/23 05:36:31;;;;;;;26.50;22.48;;;;;;;9.45;99.08;67828.84;5066842;28;20048;-84
2022/04/23 05:38:56;;;;;;;26.58;21.67;;;;;;;;;;5060349;28;20040;-83
2022/04/23 05:41:23;;;;;;;25.08;20.30;;;;;;;9.53;98.96;67837.38;5061321;28;20047;-83
2022/04/23 05:43:48;;;;;;;27.27;20.20;;;;;;;9.53;98.86;67832.06;5068565;28;20600;-83
2022/04/23 05:46:16;;;;;;;30.55;21.13;;;;;;;9.58;99.31;67837.69;5057897;28;20047;-83
2022/04/23 05:48:41;;;;;;;25.98;20.60;;;;;;;;;;5063688;28;20113;-84
2022/04/23 05:51:06;;;;;;;25.58;21.77;;;;;;;;;;5060681;28;20500;-83
2022/04/23 05:53:32;;;;;;;26.23;20.65;;;;;;;9.73;97.79;67854.72;5057208;28;20084;-83
2022/04/23 05:55:57;;;;;;;27.63;23.23;;;;;;;9.82;96.46;67867.03;5067220;28;20391;-83
2022/04/23 05:58:23;;;;;;;26.83;21.67;;;;;;;9.84;96.57;67869.28;5059729;28;20511;-83
2022/04/23 06:00:51;;;;;;;25.42;20.67;;;;;;;9.90;96.23;67873.44;5062693;28;20093;-83
2022/04/23 06:03:16;;;;;;;25.90;22.63;;;;;;;9.94;96.38;67877.97;5056938;28;20065;-83
2022/04/23 06:05:42;;;;;;;22.65;17.88;;;;;;;9.92;97.16;67876.25;5061069;28;20072;-83
2022/04/23 06:08:07;;;;;;;25.08;20.98;;;;;;;9.99;96.64;67886.31;5063601;28;20102;-83
2022/04/23 06:10:33;;;;;;;23.20;20.73;;;;;;;;;;5063104;28;20410;-83
2022/04/23 06:12:58;;;;;;;24.35;20.35;;;;;;;10.14;95.49;67900.09;5052321;28;20083;-84
2022/04/23 06:15:24;;;;;;;27.52;19.23;;;;;;;10.16;95.53;67902.38;5057370;28;20543;-84
2022/04/23 06:17:49;;;;;;;24.08;18.38;;;;;;;10.23;95.81;67909.72;5065617;28;20457;-84
2022/04/23 06:20:15;;;;;;;26.95;21.33;;;;;;;10.32;94.38;67919.97;5059609;28;20144;-84
2022/04/23 06:22:40;;;;;;;24.73;21.95;;;;;;;10.41;93.94;67932.81;5061365;28;20057;-84
2022/04/23 06:25:06;;;;;;;24.13;20.38;;;;;;;;;;5054287;28;20071;-84
2022/04/23 06:27:31;;;;;;;28.52;18.92;;;;;;;;;;5066100;28;20568;-84
2022/04/23 06:29:58;;;;;;;23.20;20.70;;;;;;;10.57;93.10;67948.31;5065510;28;20049;-84
2022/04/23 06:32:23;;;;;;;25.15;21.63;;;;;;;10.64;92.03;67957.78;5061793;28;20036;-83
2022/04/23 06:34:49;;;;;;;23.42;19.35;;;;;;;10.69;92.48;67966.13;5060079;28;20037;-82
2022/04/23 06:37:17;;;;;;;26.33;20.33;;;;;;;10.75;91.77;67973.50;5059938;28;20098;-83
2022/04/23 06:39:42;;;;;;;22.70;20.25;;;;;;;10.87;91.01;67981.25;5065269;28;20044;-83
2022/04/23 06:42:08;;;;;;;24.73;19.23;;;;;;;10.95;91.16;67990.31;5061608;28;20037;-83
2022/04/23 06:44:33;;;;;;;25.88;20.13;;;;;;;11.01;90.08;67996.56;5065843;28;20037;-83
2022/04/23 06:46:58;;;;;;;25.50;19.05;;;;;;;11.07;90.23;68009.25;5057525;28;20071;-83
2022/04/23 06:49:26;;;;;;;24.65;18.88;;;;;;;11.14;89.37;68016.09;5067023;28;20041;-83
2022/04/23 06:51:51;;;;;;;24.77;18.98;;;;;;;11.23;89.19;68026.31;5062102;28;20040;-83
2022/04/23 06:54:16;;;;;;;24.15;17.80;;;;;;;11.27;88.72;68026.09;5064744;28;20234;-83
2022/04/23 06:56:42;;;;;;;24.92;16.67;;;;;;;;;;5066283;28;20112;-83
2022/04/23 06:59:07;;;;;;;21.67;17.90;;;;;;;11.38;87.37;68037.44;5072726;28;20032;-83
2022/04/23 07:01:32;;;;;;;21.77;17.38;;;;;;;11.41;87.18;68035.53;5070837;28;20094;-83
2022/04/23 07:03:58;;;;;;;24.67;17.80;;;;;;;11.43;86.63;68043.13;5057037;28;20045;-83
2022/04/23 07:06:23;;;;;;;24.55;19.63;;;;;;;11.49;86.28;68045.16;5064426;28;20462;-83
2022/04/23 07:08:49;;;;;;;25.27;18.38;;;;;;;11.54;85.40;68055.63;5064513;28;20045;-82
2022/04/23 07:11:14;;;;;;;24.45;20.25;;;;;;;11.62;85.22;68064.69;5066557;28;20045;-84
2022/04/23 07:13:39;;;;;;;26.05;21.55;;;;;;;11.67;84.07;68072.47;5070048;28;20068;-84
2022/04/23 07:16:05;;;;;;;22.75;16.45;;;;;;;11.76;84.95;68080.03;5061700;28;20052;-84
2022/04/23 07:18:31;;;;;;;26.02;18.98;;;;;;;11.90;83.52;68095.94;5059862;28;20071;-83
2022/04/23 07:20:57;;;;;;;22.40;17.25;;;;;;;12.05;82.50;68112.44;5060199;28;20071;-83
2022/04/23 07:26:07;;;;;;;24.05;16.98;;;;;;;12.22;81.93;68133.84;5063666;28;20449;-83
2022/04/23 07:28:32;;;;;;;22.75;16.83;;;;;;;12.25;81.30;68136.69;5065890;28;20097;-83
2022/04/23 07:30:58;;;;;;;22.17;17.63;;;;;;;12.33;81.03;68143.13;5068480;28;20041;-83
2022/04/23 07:38:52;;;;;;;23.15;16.88;;;;;;;12.44;78.69;68149.72;5067086;28;20063;-83
2022/04/23 07:41:18;;;;;;;24.38;18.80;;;;;;;12.49;78.48;68161.31;5081348;28;20067;-86
2022/04/23 07:43:44;;;;;;;24.08;16.10;;;;;;;12.47;77.86;68158.47;5079706;28;20096;-83
2022/04/23 07:46:09;;;;;;;21.75;16.60;;;;;;;;;;5072873;28;20074;-81
2022/04/23 07:48:34;;;;;;;23.63;18.23;;;;;;;;;;5070828;28;20040;-82
2022/04/23 07:51:00;;;;;;;23.83;17.02;;;;;;;12.48;77.27;68159.59;5057221;28;20391;-82
2022/04/23 07:53:25;;;;;;;34.03;20.05;;;;;;;;;;5062100;28;20029;-83
2022/04/23 07:55:51;;;;;;;24.58;16.60;;;;;;;12.62;78.12;68176.06;5071985;28;20940;-82
2022/04/23 07:58:16;;;;;;;24.92;18.17;;;;;;;;;;5069671;28;20538;-82
2022/04/23 08:00:43;;;;;;;25.08;20.08;;;;;;;12.84;76.35;68195.19;5064826;28;20045;-82
2022/04/23 08:03:08;;;;;;;26.98;19.20;;;;;;;;;;5065393;28;20045;-82
2022/04/23 08:05:35;;;;;;;27.05;19.83;;;;;;;12.59;76.94;68172.66;5064235;28;20142;-83
2022/04/23 08:08:00;;;;;;;25.63;18.17;;;;;;;12.67;77.53;68180.63;5059330;28;20528;-84
2022/04/23 08:10:26;;;;;;;24.90;18.50;;;;;;;12.81;77.46;68196.53;5053850;28;20036;-83
2022/04/23 08:12:51;;;;;;;30.13;19.13;;;;;;;12.92;76.14;68208.47;5052175;28;20853;-83
2022/04/23 08:15:17;;;;;;;27.25;18.35;;;;;;;12.91;75.84;68207.91;5068743;28;20123;-83
2022/04/23 08:17:42;;;;;;;26.17;18.98;;;;;;;12.84;75.69;68200.53;5072654;28;20450;-83
2022/04/23 08:20:09;;;;;;;25.92;18.77;;;;;;;12.88;75.99;68204.50;5069907;28;20037;-82
2022/04/23 08:22:35;;;;;;;26.48;18.55;;;;;;;12.87;75.83;68203.94;5074132;28;20487;-83
2022/04/23 08:25:00;;;;;;;25.88;18.67;;;;;;;12.97;75.54;68214.16;5065069;28;20044;-83
2022/04/23 08:27:26;;;;;;;25.25;19.38;;;;;;;13.10;76.59;68228.94;5070923;28;20089;-83
2022/04/23 08:32:35;;;;;;;27.10;19.55;;;;;;;13.35;74.31;68256.25;5075865;28;20052;-83
2022/04/23 08:35:01;;;;;;;26.20;20.00;;;;;;;;;;5077899;28;20041;-83
2022/04/23 08:37:26;;;;;;;25.30;18.73;;;;;;;13.55;74.03;68279.00;5068268;28;20037;-83
2022/04/23 08:39:52;;;;;;;25.90;19.67;;;;;;;13.53;73.45;68276.75;5082858;28;20044;-83
2022/04/23 08:42:18;;;;;;;27.60;20.17;;;;;;;;;;5075871;28;20036;-83
2022/04/23 08:44:44;;;;;;;27.88;18.75;;;;;;;13.66;73.76;68291.50;5073075;28;20036;-83
2022/04/23 08:47:10;;;;;;;27.50;20.35;;;;;;;;;;5073141;28;20044;-83
2022/04/23 08:49:39;;;;;;;28.60;20.60;;;;;;;;;;5070322;28;20045;-83
2022/04/23 08:52:14;;;;;;;29.48;19.45;;;;;;;;;;5068261;28;20040;-83
2022/04/23 08:54:40;;;;;;;24.88;17.88;;;;;;;13.96;70.77;68324.53;5066762;28;20060;-83
2022/04/23 08:57:05;;;;;;;26.02;19.55;;;;;;;;;;5070303;28;20066;-83
2022/04/23 08:59:30;;;;;;;27.52;18.80;;;;;;;14.11;71.13;68341.59;5070146;28;20044;-83
2022/04/23 09:01:56;;;;;;;25.75;19.50;;;;;;;;;;5064247;28;20043;-83
2022/04/23 09:04:21;;;;;;;25.95;18.58;;;;;;;14.21;70.82;68352.97;5064447;28;20923;-83
2022/04/23 09:06:48;;;;;;;25.38;20.38;;;;;;;14.32;70.28;68359.56;5069523;28;20088;-83
2022/04/23 09:09:21;;;;;;;24.23;18.02;;;;;;;14.41;70.38;68374.59;5072941;28;20093;-83
2022/04/23 09:11:50;;;;;;;25.70;19.90;;;;;;;;;;5070978;28;20048;-83
2022/04/23 09:14:28;;;;;;;28.52;19.08;;;;;;;14.57;68.65;68392.84;5071975;28;20045;-83
2022/04/23 09:25:29;;;;;;;27.08;20.90;;;;;;;14.64;67.67;68400.81;5069042;28;20540;-82
2022/04/23 09:27:54;;;;;;;28.17;19.58;;;;;;;14.69;67.85;68405.34;5062550;28;20055;-82
2022/04/23 09:30:19;;;;;;;30.30;19.60;;;;;;;14.80;67.25;68417.88;5066313;28;20036;-83
2022/04/23 09:33:00;;;;;;;29.70;19.92;;;;;;;14.80;67.46;68409.84;5067719;28;20052;-82
2022/04/23 09:35:26;;;;;;;28.13;21.20;;;;;;;14.87;67.79;68426.44;5067077;28;20044;-82
2022/04/23 09:40:35;;;;;;;28.60;21.48;;;;;;;;;;5065827;28;20076;-82
2022/04/23 09:43:11;;;;;;;29.23;19.70;;;;;;;15.39;66.86;68483.38;5062745;28;20040;-82
2022/04/23 09:45:42;;;;;;;27.25;20.75;;;;;;;15.35;66.80;68474.59;5056699;28;20841;-82
2022/04/23 09:48:10;;;;;;;29.05;20.52;;;;;;;;;;5062767;28;20040;-82
2022/04/23 09:50:36;;;;;;;28.13;20.50;;;;;;;;;;5065978;28;20040;-82
2022/04/23 09:53:28;;;;;;;26.45;21.40;;;;;;;15.92;64.88;68537.84;5063355;28;20040;-82
2022/04/23 09:56:01;;;;;;;30.85;20.83;;;;;;;;;;5058883;28;20087;-82
2022/04/23 09:58:29;;;;;;;27.55;20.50;;;;;;;;;;5063109;28;20041;-82
2022/04/23 10:00:56;;;;;;;28.42;21.38;;;;;;;15.96;62.93;68541.84;5064659;28;20051;-82
2022/04/23 10:03:29;;;;;;;28.10;21.48;;;;;;;15.82;64.63;68531.81;5058585;28;20041;-82
2022/04/23 10:05:56;;;;;;;30.52;20.73;;;;;;;16.00;64.90;68546.97;5060174;28;20124;-82
2022/04/23 10:08:33;;;;;;;24.15;20.08;;;;;;;;;;5063426;28;20048;-82
2022/04/23 10:11:07;;;;;;;26.70;18.98;;;;;;;;;;5063276;28;20095;-82
2022/04/23 10:13:33;;;;;;;26.60;20.20;;;;;;;16.00;63.06;68546.97;5060740;28;20048;-82
2022/04/23 10:16:02;;;;;;;26.90;19.75;;;;;;;;;;5080355;28;20044;-82
2022/04/23 10:18:27;;;;;;;25.30;19.58;;;;;;;16.11;62.71;68558.34;5056240;28;20041;-82
2022/04/23 10:20:59;;;;;;;27.80;20.88;;;;;;;;;;5065242;28;20046;-82
2022/04/23 10:23:48;;;;;;;24.67;18.50;;;;;;;16.32;62.03;68587.69;5069918;28;20131;-82
2022/04/23 10:26:43;;;;;;;29.02;19.27;;;;;;;16.69;63.40;68623.91;5063898;28;20044;-82
2022/04/23 10:29:09;;;;;;;26.85;19.00;;;;;;;;;;5070424;28;20040;-82
2022/04/23 10:31:36;;;;;;;27.63;18.85;;;;;;;16.65;60.73;68624.16;5070482;28;20040;-82
2022/04/23 10:34:01;;;;;;;28.90;18.60;;;;;;;;;;5072636;28;20073;-82
2022/04/23 10:36:27;;;;;;;25.53;19.57;;;;;;;16.95;57.39;68651.88;5067899;28;20048;-82
2022/04/23 10:39:19;;;;;;;30.40;19.60;;;;;;;16.65;59.10;68618.78;5071201;28;20279;-83
2022/04/23 10:41:45;;;;;;;25.90;20.48;;;;;;;16.69;59.66;68623.34;5071827;28;20036;-82
2022/04/23 10:44:11;;;;;;;26.13;19.50;;;;;;;16.87;58.41;68643.31;5067615;28;20514;-82
2022/04/23 10:46:45;;;;;;;26.38;18.25;;;;;;;16.86;57.03;68639.47;5069425;28;20538;-83
2022/04/23 10:49:13;;;;;;;26.88;19.92;;;;;;;16.78;56.82;68633.06;5066469;28;20047;-82
2022/04/23 10:51:54;;;;;;;24.92;17.58;;;;;;;16.84;58.08;68640.47;5061471;28;20073;-83
2022/04/23 10:54:41;;;;;;;23.33;18.27;;;;;;;16.91;56.79;68653.25;5068440;28;20144;-82
2022/04/23 10:57:10;;;;;;;26.77;18.92;;;;;;;;;;5062931;28;20047;-82
2022/04/23 10:59:40;;;;;;;26.05;19.02;;;;;;;17.19;55.86;68678.69;5065334;28;20044;-83
2022/04/23 11:02:24;;;;;;;23.58;17.70;;;;;;;17.28;57.27;68688.94;5067743;28;20079;-83
2022/04/23 11:13:29;;;;;;;26.40;17.58;;;;;;;16.94;56.23;68656.09;5068169;28;20067;-82
2022/04/23 11:16:14;;;;;;;26.88;18.73;;;;;;;17.07;57.25;68665.56;5069703;28;20036;-82
2022/04/23 11:18:49;;;;;;;21.60;17.38;;;;;;;17.09;55.18;68667.84;5064756;28;20543;-82
2022/04/23 11:21:29;;;;;;;23.70;19.42;;;;;;;17.11;57.18;68670.13;5073999;28;20056;-84
2022/04/23 11:23:56;;;;;;;22.10;15.82;;;;;;;17.41;57.09;68709.16;5073023;28;20044;-84
2022/04/23 11:26:22;;;;;;;22.48;16.17;;;;;;;;;;5075299;28;20045;-84
2022/04/23 11:28:58;;;;;;;20.10;14.60;;;;;;;16.98;55.43;68660.69;5073153;28;20175;-84
2022/04/23 11:31:24;;;;;;;23.98;15.75;;;;;;;;;;5073506;28;20108;-84
2022/04/23 11:33:53;;;;;;;20.48;14.35;;;;;;;17.13;55.56;68677.78;5076443;28;20052;-83
2022/04/23 11:36:24;;;;;;;18.92;14.05;;;;;;;17.36;55.18;68698.63;5071887;28;20036;-84
2022/04/23 11:38:49;;;;;;;18.20;14.38;;;;;;;17.47;55.73;68710.06;5072670;28;20043;-84
2022/04/23 11:41:27;;;;;;;19.40;14.20;;;;;;;;;;5079460;28;20087;-84
2022/04/23 11:43:53;;;;;;;19.10;14.57;;;;;;;17.93;55.81;68759.31;5061069;28;20049;-84
2022/04/23 11:46:18;;;;;;;17.52;14.10;;;;;;;18.27;55.02;68797.56;5079455;28;20597;-83
2022/04/23 11:48:47;;;;;;;21.33;13.10;;;;;;;18.32;52.76;68802.69;5079191;28;20102;-83
2022/04/23 11:51:13;;;;;;;18.33;13.48;;;;;;;18.43;52.96;68817.38;5076949;28;20040;-83
2022/04/23 11:53:46;;;;;;;19.10;13.68;;;;;;;;;;5072398;28;20049;-83
2022/04/23 11:56:22;;;;;;;16.17;13.68;;;;;;;18.48;51.64;68823.66;5074785;28;20115;-85
2022/04/23 11:58:47;;;;;;;20.48;13.43;;;;;;;18.58;53.02;68834.47;5075153;28;20151;-85
2022/04/23 12:01:12;;;;;;;17.10;13.65;;;;;;;18.56;51.69;68832.22;5072851;28;20072;-84
2022/04/23 12:03:48;;;;;;;17.33;14.18;;;;;;;18.29;52.26;68801.38;5065726;28;20045;-85
2022/04/23 12:06:13;;;;;;;18.02;13.43;;;;;;;18.15;52.13;68786.53;5061245;28;20132;-85
2022/04/23 12:08:38;;;;;;;18.00;13.68;;;;;;;;;;5073613;28;20082;-85
2022/04/23 12:11:19;;;;;;;18.23;13.13;;;;;;;17.90;52.82;68763.97;5072837;28;20040;-86
2022/04/23 12:13:44;;;;;;;21.52;13.68;;;;;;;;;;5067936;28;20280;-86
2022/04/23 12:16:09;;;;;;;16.75;12.77;;;;;;;;;;5065119;28;20052;-86
2022/04/23 12:18:36;;;;;;;19.10;14.57;;;;;;;17.26;52.56;68687.25;5073203;28;20068;-85